Flight Track Log - Related Links

Times and Time Zones

All times are in EDT time to prevent confusion due to time zone crossing. See the BJS444 flight status page for this flight to view local times or setup timezone preferences in your user account.

Time Position Orientation Groundspeed Altitude Reporting Facility
EDT Latitude Longitude Course Direction KTS MPH feet Rate Location/Type
Thu 12:39:51 PM 26.1883 -81.6928 96° East 209 241 6,500  Level Miami Center
Thu 12:40:51 PM 26.2422 -81.6417 40° Northeast 209 241 9,000 2,050 Climbing Miami Center
Thu 12:41:51 PM 26.2864 -81.5672 56° Northeast 253 291 10,600 1,650 Climbing Miami Center
Thu 12:42:51 PM 26.3478 -81.4744 54° Northeast 303 349 12,300 1,150 Climbing Miami Center
Thu 12:43:00 PM 26.4738 -81.7619 10° North  Level FlightAware Approximate
Thu 12:43:51 PM 26.4031 -81.3839 56° Northeast 339 390 12,900  Level Miami Center
Thu 12:44:00 PM 26.5355 -81.7457 61° Northeast  Level FlightAware Approximate
Thu 12:44:51 PM 26.4539 -81.2908 59° Northeast 345 397 13,000  Level Miami Center
Thu 12:45:00 PM 26.5286 -81.6694 96° East  Level Estimated
Thu 12:45:51 PM 26.4611 -81.1822 86° East 339 390 12,300  Level Miami Center
Thu 12:46:51 PM 26.4689 -81.0664 86° East 354 407 11,200 -1,350 Descending Miami Center
Thu 12:47:51 PM 26.4569 -80.9661 98° East 338 389 9,600 -1,650 Descending Miami Center
Thu 12:48:51 PM 26.4514 -80.8733 94° East 296 341 7,900 -1,600 Descending Miami Center
Thu 12:49:51 PM 26.4450 -80.7964 95° East 270 311 6,400 -1,450 Descending Miami Center
Thu 12:50:51 PM 26.4539 -80.7039 84° East 270 311 5,000 -700 Descending Miami Center
Thu 12:51:51 PM 26.4619 -80.6300 83° East 270 311 5,000  Level Miami Center
Thu 12:52:41 PM 26.4703 -80.5536 83° East 268 308 5,000 -800 Level Miami Center
Thu 12:53:51 PM 26.4597 -80.4675 98° East 268 308 3,400 -923 Descending Miami Center
Thu 12:54:51 PM 26.4389 -80.3833 105° East 251 289 3,000 -450 Descending Miami Center
Thu 12:55:51 PM 26.4219 -80.3108 105° East 250 288 2,500 -783 Descending Miami Center
Thu 12:56:46 PM 26.4044 -80.2478 107° East 219 252 1,500 -550 Descending Miami Center
Thu 12:57:51 PM 26.3869 -80.1894 109° East 207 238 1,400 -192 Descending Miami Center
Thu 12:58:51 PM 26.3608 -80.1514 127° Southeast 165 190 1,100 -375 Descending Miami Center
Thu 12:58:55 PM 26.3608 -80.1514 127° Southeast 139 160 1,000 -900 Descending Miami Center
Thu 12:59:51 PM 26.3656 -80.1214 80° East 123 142 200 -857 Descending Miami Center
Thu 01:02:00 PM 26.3667 -80.1000 119° Southeast  Level FlightAware Approximate

Login

Don't have an account? Register now (free) for customized features, flight alerts, and more!